Time;durP1;ratioP1;P1;durP2;ratioP2;P2;SDS_P1;SDS_P2;PMS_P1;PMS_P2;Temp;Humidity;BMP_temperature;BMP_pressure;BME280_temperature;BME280_humidity;BME280_pressure;Samples;Min_cycle;Max_cycle;Signal;HPM_P1;HPM_P2
2021/10/23 00:01:18;;;;;;;6.78;2.60;;;;;;;;;;10426430;28;20029;-79
2021/10/23 00:06:18;;;;;;;24.08;2.65;;;;;;;;;;10422216;28;20029;-79
2021/10/23 00:11:18;;;;;;;22.67;3.97;;;;;;;;;;10422939;28;20209;-79
2021/10/23 00:16:18;;;;;;;3.88;2.13;;;;;;;;;;10420270;28;20026;-79
2021/10/23 00:21:18;;;;;;;1.75;1.65;;;;;;;;;;10421578;28;20040;-79
2021/10/23 00:26:19;;;;;;;5.07;2.08;;;;;;;;;;10421540;28;20057;-78
2021/10/23 00:31:19;;;;;;;8.88;1.95;;;;;;;;;;10420974;28;20384;-79
2021/10/23 00:36:19;;;;;;;1.55;1.45;;;;;;;;;;10420631;28;20029;-79
2021/10/23 00:41:19;;;;;;;5.88;1.70;;;;;;;;;;10421374;28;20360;-79
2021/10/23 00:46:19;;;;;;;3.03;1.55;;;;;;;;;;10421104;28;20025;-78
2021/10/23 00:51:20;;;;;;;7.88;3.63;;;;;;;;;;10420557;28;20037;-78
2021/10/23 00:56:20;;;;;;;6.63;1.67;;;;;;;;;;10419829;28;20029;-79
2021/10/23 01:01:20;;;;;;;5.90;2.28;;;;;;;;;;10420489;28;20044;-78
2021/10/23 01:06:20;;;;;;;3.33;2.13;;;;;;;;;;10420207;28;20087;-79
2021/10/23 01:11:20;;;;;;;12.63;2.00;;;;;;;;;;10419459;28;20029;-78
2021/10/23 01:16:21;;;;;;;24.77;3.70;;;;;;;;;;10420620;28;20488;-78
2021/10/23 01:21:21;;;;;;;5.93;2.38;;;;;;;;;;10419766;28;20040;-79
2021/10/23 01:26:22;;;;;;;1.80;1.63;;;;;;;;;;10416477;28;20053;-79
2021/10/23 01:31:22;;;;;;;4.93;1.75;;;;;;;;;;10417701;28;20101;-78
2021/10/23 01:36:22;;;;;;;1.50;1.40;;;;;;;;;;10415667;28;20036;-78
2021/10/23 01:41:22;;;;;;;4.55;1.85;;;;;;;;;;10417647;28;20038;-79
2021/10/23 01:46:23;;;;;;;12.93;2.50;;;;;;;;;;10418539;28;20033;-78
2021/10/23 01:51:23;;;;;;;3.90;1.73;;;;;;;;;;10419086;28;20109;-78
2021/10/23 01:56:23;;;;;;;3.53;1.85;;;;;;;;;;10419341;28;20036;-79
2021/10/23 02:01:23;;;;;;;13.17;1.77;;;;;;;;;;10418055;28;20041;-79
2021/10/23 02:06:24;;;;;;;3.53;2.50;;;;;;;;;;10416063;28;20341;-78
2021/10/23 02:11:24;;;;;;;8.38;2.75;;;;;;;;;;10414963;28;20104;-79
2021/10/23 02:16:24;;;;;;;2.70;2.28;;;;;;;;;;10418214;28;20021;-79
2021/10/23 02:21:25;;;;;;;11.38;3.58;;;;;;;;;;10418437;28;20033;-79
2021/10/23 02:26:25;;;;;;;3.72;2.58;;;;;;;;;;10415725;28;20057;-80
2021/10/23 02:31:25;;;;;;;4.07;2.45;;;;;;;;;;10415216;28;20101;-79
2021/10/23 02:36:25;;;;;;;5.93;3.55;;;;;;;;;;10417794;28;20465;-78
2021/10/23 02:41:26;;;;;;;6.70;3.55;;;;;;;;;;10417230;28;20095;-78
2021/10/23 02:46:26;;;;;;;2.38;1.90;;;;;;;;;;10415584;28;20026;-79
2021/10/23 02:51:26;;;;;;;5.82;2.10;;;;;;;;;;10413974;28;20029;-79
2021/10/23 02:56:27;;;;;;;6.32;3.03;;;;;;;;;;10416300;28;20030;-79
2021/10/23 03:01:27;;;;;;;9.65;3.17;;;;;;;;;;10416925;28;20282;-79
2021/10/23 03:06:27;;;;;;;2.10;1.92;;;;;;;;;;10417517;28;20490;-79
2021/10/23 03:11:28;;;;;;;7.75;3.03;;;;;;;;;;10417038;28;20029;-79
2021/10/23 03:16:28;;;;;;;11.27;1.75;;;;;;;;;;10416793;28;20032;-81
2021/10/23 03:21:28;;;;;;;5.43;3.03;;;;;;;;;;10415900;28;20029;-79
2021/10/23 03:26:28;;;;;;;2.15;2.00;;;;;;;;;;10423162;28;20449;-78
2021/10/23 03:31:28;;;;;;;6.85;3.10;;;;;;;;;;10422825;28;20032;-80
2021/10/23 03:36:29;;;;;;;13.48;3.25;;;;;;;;;;10422015;28;20034;-79
2021/10/23 03:41:29;;;;;;;4.55;2.65;;;;;;;;;;10420266;28;20064;-79
2021/10/23 03:46:29;;;;;;;5.68;3.10;;;;;;;;;;10421214;28;20511;-79
2021/10/23 03:51:29;;;;;;;15.27;4.20;;;;;;;;;;10421068;28;20128;-79
2021/10/23 03:56:29;;;;;;;8.27;2.90;;;;;;;;;;10420530;28;20036;-79
2021/10/23 04:01:30;;;;;;;6.22;4.30;;;;;;;;;;10419864;28;20465;-80
2021/10/23 04:06:30;;;;;;;10.20;3.88;;;;;;;;;;10420448;28;20483;-79
2021/10/23 04:11:30;;;;;;;3.38;2.78;;;;;;;;;;10421886;28;20123;-79
2021/10/23 04:16:30;;;;;;;6.15;3.22;;;;;;;;;;10421857;28;20033;-80
2021/10/23 04:21:31;;;;;;;13.35;4.07;;;;;;;;;;10421845;28;20109;-79
2021/10/23 04:26:31;;;;;;;7.70;3.30;;;;;;;;;;10419349;28;20532;-79
2021/10/23 04:31:32;;;;;;;7.40;2.30;;;;;;;;;;10421812;28;20021;-78
2021/10/23 04:36:32;;;;;;;32.40;4.85;;;;;;;;;;10420838;28;20357;-79
2021/10/23 04:41:36;;;;;;;8.65;3.85;;;;;;;;;;10419828;28;20029;-78
2021/10/23 04:46:36;;;;;;;18.33;3.00;;;;;;;;;;10433742;28;20103;-78
2021/10/23 04:51:36;;;;;;;19.75;4.18;;;;;;;;;;10418733;28;20164;-79
2021/10/23 04:56:36;;;;;;;10.35;3.38;;;;;;;;;;10418853;28;20041;-78
2021/10/23 05:01:37;;;;;;;3.40;2.40;;;;;;;;;;10419301;28;20033;-79
2021/10/23 05:06:37;;;;;;;11.65;2.95;;;;;;;;;;10418047;28;20494;-79
2021/10/23 05:11:37;;;;;;;13.55;3.35;;;;;;;;;;10417812;28;20462;-79
2021/10/23 05:16:37;;;;;;;13.88;3.45;;;;;;;;;;10417832;28;20034;-78
2021/10/23 05:21:37;;;;;;;26.65;4.97;;;;;;;;;;10418121;28;20037;-79
2021/10/23 05:26:38;;;;;;;2.65;2.45;;;;;;;;;;10416289;28;20103;-79
2021/10/23 05:31:38;;;;;;;24.23;4.45;;;;;;;;;;10418561;28;20033;-79
2021/10/23 05:36:39;;;;;;;5.05;3.03;;;;;;;;;;10415701;28;20044;-79
2021/10/23 05:41:39;;;;;;;11.38;3.30;;;;;;;;;;10417337;28;20033;-78
2021/10/23 05:46:39;;;;;;;6.18;3.10;;;;;;;;;;10416725;28;20029;-79
2021/10/23 05:51:39;;;;;;;7.45;3.10;;;;;;;;;;10418459;28;20029;-78
2021/10/23 05:56:40;;;;;;;16.38;3.88;;;;;;;;;;10416324;28;20087;-79
2021/10/23 06:01:42;;;;;;;8.32;4.28;;;;;;;;;;10417935;28;20074;-79
2021/10/23 06:06:43;;;;;;;10.07;4.10;;;;;;;;;;10418248;28;20033;-79
2021/10/23 06:11:44;;;;;;;10.35;4.13;;;;;;;;;;10418053;28;20164;-79
2021/10/23 06:16:44;;;;;;;3.35;3.15;;;;;;;;;;10419126;28;20096;-79
2021/10/23 06:21:44;;;;;;;8.77;2.60;;;;;;;;;;10416784;28;20028;-79
2021/10/23 06:26:44;;;;;;;5.72;3.60;;;;;;;;;;10417221;28;20390;-78
2021/10/23 06:31:45;;;;;;;10.52;4.40;;;;;;;;;;10420439;28;20533;-76
2021/10/23 06:36:45;;;;;;;10.48;3.95;;;;;;;;;;10437059;28;20029;-77
2021/10/23 06:41:45;;;;;;;5.03;4.03;;;;;;;;;;10426123;28;20032;-78
2021/10/23 06:46:45;;;;;;;7.00;3.50;;;;;;;;;;10416934;28;20036;-79
2021/10/23 06:51:46;;;;;;;8.38;4.85;;;;;;;;;;10415239;28;20358;-79
2021/10/23 06:56:46;;;;;;;7.57;4.07;;;;;;;;;;10417255;28;20103;-79
2021/10/23 07:01:46;;;;;;;10.80;4.57;;;;;;;;;;10422217;28;20029;-78
2021/10/23 07:06:46;;;;;;;18.67;7.43;;;;;;;;;;10423968;28;20037;-79
2021/10/23 07:11:46;;;;;;;15.07;6.68;;;;;;;;;;10405887;28;20036;-79
2021/10/23 07:16:47;;;;;;;8.35;6.63;;;;;;;;;;10423143;28;20362;-79
2021/10/23 07:21:48;;;;;;;7.07;6.38;;;;;;;;;;10422809;28;20026;-80
2021/10/23 07:26:48;;;;;;;8.02;6.95;;;;;;;;;;10421880;28;20053;-79
2021/10/23 07:31:48;;;;;;;13.93;7.57;;;;;;;;;;10421748;28;20029;-79
2021/10/23 07:36:48;;;;;;;8.43;5.95;;;;;;;;;;10421397;28;20048;-79
2021/10/23 07:41:49;;;;;;;9.13;5.82;;;;;;;;;;10422075;28;20544;-80
2021/10/23 07:46:49;;;;;;;6.60;5.78;;;;;;;;;;10381851;28;20120;-82
2021/10/23 07:51:49;;;;;;;8.23;5.68;;;;;;;;;;10421494;28;20041;-80
2021/10/23 07:56:50;;;;;;;10.20;6.18;;;;;;;;;;10420216;28;20099;-81
2021/10/23 08:01:50;;;;;;;10.35;6.13;;;;;;;;;;10420660;28;20033;-79
2021/10/23 08:06:50;;;;;;;15.13;8.45;;;;;;;;;;10420656;28;20042;-80
2021/10/23 08:11:50;;;;;;;9.50;7.57;;;;;;;;;;10418260;28;20033;-79
2021/10/23 08:16:51;;;;;;;11.13;7.72;;;;;;;;;;10420084;28;20026;-79
2021/10/23 08:21:51;;;;;;;12.27;7.40;;;;;;;;;;10419022;28;20029;-79
2021/10/23 08:26:52;;;;;;;16.23;9.35;;;;;;;;;;10418865;28;20497;-79
2021/10/23 08:31:52;;;;;;;19.45;9.82;;;;;;;;;;10419678;28;20025;-79
2021/10/23 08:36:52;;;;;;;10.45;6.75;;;;;;;;;;10420055;28;20469;-79
2021/10/23 08:41:52;;;;;;;19.52;8.73;;;;;;;;;;10419661;28;20048;-80
2021/10/23 08:46:52;;;;;;;10.07;8.45;;;;;;;;;;10420084;28;20485;-80
2021/10/23 08:51:52;;;;;;;7.65;6.90;;;;;;;;;;10419035;28;20041;-79
2021/10/23 08:56:53;;;;;;;10.27;7.70;;;;;;;;;;10418916;28;20061;-79
2021/10/23 09:01:55;;;;;;;9.13;8.23;;;;;;;;;;10418366;28;20112;-80
2021/10/23 09:07:08;;;;;;;12.77;7.05;;;;;;;;;;10420363;28;20068;-80
2021/10/23 09:12:15;;;;;;;7.22;6.50;;;;;;;;;;10420422;28;20481;-79
2021/10/23 09:17:17;;;;;;;12.55;6.40;;;;;;;;;;10420325;28;20029;-79
2021/10/23 09:22:24;;;;;;;5.43;4.82;;;;;;;;;;10420031;28;20453;-80
2021/10/23 09:27:24;;;;;;;20.27;5.70;;;;;;;;;;10418169;28;20446;-80
2021/10/23 09:32:31;;;;;;;8.68;4.45;;;;;;;;;;10419337;28;20104;-80
2021/10/23 09:37:31;;;;;;;;;;;;;;;;;;10421052;28;20045;-82
2021/10/23 09:42:31;;;;;;;9.27;4.55;;;;;;;;;;10420309;28;19951;-81
2021/10/23 09:47:35;;;;;;;3.58;3.28;;;;;;;;;;10418172;28;20025;-80
2021/10/23 09:52:51;;;;;;;3.17;2.72;;;;;;;;;;10419938;28;20116;-83
2021/10/23 09:58:05;;;;;;;10.68;3.72;;;;;;;;;;10417259;28;20032;-83
2021/10/23 10:03:06;;;;;;;5.15;3.05;;;;;;;;;;10417196;28;20025;-81
2021/10/23 10:08:07;;;;;;;2.88;2.67;;;;;;;;;;10403837;28;20033;-80
2021/10/23 10:13:08;;;;;;;5.00;4.05;;;;;;;;;;10420252;28;20094;-81
2021/10/23 10:18:08;;;;;;;3.78;3.47;;;;;;;;;;10401806;28;20188;-81
2021/10/23 10:23:10;;;;;;;6.55;3.58;;;;;;;;;;10418171;28;20126;-81
2021/10/23 10:28:11;;;;;;;7.75;4.45;;;;;;;;;;10417162;28;20042;-82
2021/10/23 10:33:42;;;;;;;5.60;3.95;;;;;;;;;;10400384;28;20048;-81
2021/10/23 10:38:58;;;;;;;6.25;4.60;;;;;;;;;;10418878;28;20025;-82
2021/10/23 10:44:11;;;;;;;8.57;5.55;;;;;;;;;;10418419;28;20042;-80
2021/10/23 10:49:30;;;;;;;8.77;7.13;;;;;;;;;;10417567;28;20523;-81
2021/10/23 10:54:30;;;;;;;6.50;5.88;;;;;;;;;;10416541;28;20029;-80
2021/10/23 10:59:49;;;;;;;12.15;7.00;;;;;;;;;;10417662;28;20038;-80
2021/10/23 11:05:08;;;;;;;7.35;5.00;;;;;;;;;;10417766;28;20486;-80
2021/10/23 11:10:08;;;;;;;6.38;5.07;;;;;;;;;;10415786;28;20445;-80
2021/10/23 11:15:09;;;;;;;5.72;4.80;;;;;;;;;;10415559;28;20060;-80
2021/10/23 11:20:10;;;;;;;4.90;4.43;;;;;;;;;;10413806;28;20474;-80
2021/10/23 11:25:12;;;;;;;5.45;5.00;;;;;;;;;;10416808;28;20050;-80
2021/10/23 11:30:19;;;;;;;9.05;6.75;;;;;;;;;;10416701;28;20087;-80
2021/10/23 11:35:32;;;;;;;9.75;5.75;;;;;;;;;;10416718;28;20049;-80
2021/10/23 11:40:33;;;;;;;10.43;5.53;;;;;;;;;;10416424;28;20049;-81
2021/10/23 11:45:34;;;;;;;5.10;4.60;;;;;;;;;;10422121;28;20029;-82
2021/10/23 11:50:35;;;;;;;5.45;4.78;;;;;;;;;;10424132;28;20025;-81
2021/10/23 11:55:39;;;;;;;6.57;5.97;;;;;;;;;;10421436;28;20037;-83
2021/10/23 12:00:40;;;;;;;7.47;6.25;;;;;;;;;;10421460;28;20439;-82
2021/10/23 12:05:49;;;;;;;8.20;6.57;;;;;;;;;;10425376;28;20030;-83
2021/10/23 12:10:58;;;;;;;8.48;6.70;;;;;;;;;;10421347;28;20420;-83
2021/10/23 12:15:59;;;;;;;11.90;6.85;;;;;;;;;;10419452;28;20078;-83
2021/10/23 12:21:09;;;;;;;15.85;7.53;;;;;;;;;;10420483;28;20477;-82
2021/10/23 12:26:09;;;;;;;22.00;7.97;;;;;;;;;;10418812;28;20402;-82
2021/10/23 12:31:09;;;;;;;10.88;8.77;;;;;;;;;;10418141;28;20030;-83
2021/10/23 12:36:16;;;;;;;10.20;9.15;;;;;;;;;;10434594;28;20477;-81
2021/10/23 12:41:16;;;;;;;23.83;9.32;;;;;;;;;;10446504;28;20028;-83
2021/10/23 12:46:20;;;;;;;9.90;7.50;;;;;;;;;;10459992;28;20045;-81
2021/10/23 12:51:20;;;;;;;13.23;8.70;;;;;;;;;;10407868;28;20108;-81
2021/10/23 12:56:20;;;;;;;13.95;10.00;;;;;;;;;;10392171;28;20108;-81
2021/10/23 13:01:22;;;;;;;14.23;9.57;;;;;;;;;;10378867;28;20096;-82
2021/10/23 13:06:22;;;;;;;15.80;10.95;;;;;;;;;;10423170;28;20044;-82
2021/10/23 13:11:22;;;;;;;18.35;10.00;;;;;;;;;;10462062;28;20060;-83
2021/10/23 13:16:22;;;;;;;17.92;9.90;;;;;;;;;;10454284;28;20033;-83
2021/10/23 13:21:23;;;;;;;16.27;11.88;;;;;;;;;;10449940;28;20108;-83
2021/10/23 13:26:23;;;;;;;15.88;11.52;;;;;;;;;;10450433;28;20058;-82
2021/10/23 13:31:23;;;;;;;28.17;13.48;;;;;;;;;;10434441;28;20087;-80
2021/10/23 13:36:23;;;;;;;16.40;14.45;;;;;;;;;;10440336;28;20093;-81
2021/10/23 13:41:24;;;;;;;14.17;12.77;;;;;;;;;;10416570;28;20083;-82
2021/10/23 13:46:24;;;;;;;17.08;12.77;;;;;;;;;;10376272;28;20279;-81
2021/10/23 13:51:25;;;;;;;17.33;12.32;;;;;;;;;;10383517;28;20093;-83
2021/10/23 13:56:26;;;;;;;14.80;11.43;;;;;;;;;;10380010;28;20053;-84
2021/10/23 14:01:27;;;;;;;21.45;11.57;;;;;;;;;;10415582;28;20049;-82
2021/10/23 14:06:27;;;;;;;16.73;11.15;;;;;;;;;;10398875;28;20077;-83
2021/10/23 14:11:27;;;;;;;28.88;13.55;;;;;;;;;;10415372;28;20033;-83
2021/10/23 14:16:27;;;;;;;13.95;10.27;;;;;;;;;;10414845;28;20524;-83
2021/10/23 14:21:28;;;;;;;17.58;10.63;;;;;;;;;;10415833;28;20033;-83
2021/10/23 14:26:28;;;;;;;20.30;11.37;;;;;;;;;;10413144;28;20464;-83
2021/10/23 14:31:30;;;;;;;11.52;9.65;;;;;;;;;;10417997;28;20313;-82
2021/10/23 14:36:31;;;;;;;12.75;9.70;;;;;;;;;;10432763;28;20108;-82
2021/10/23 14:41:31;;;;;;;17.83;9.30;;;;;;;;;;10459260;28;20088;-84
2021/10/23 14:46:32;;;;;;;22.95;8.18;;;;;;;;;;10460542;28;20780;-83
2021/10/23 14:51:32;;;;;;;16.52;8.20;;;;;;;;;;10462386;28;20028;-83
2021/10/23 14:56:32;;;;;;;14.32;9.02;;;;;;;;;;10461383;28;20086;-84
2021/10/23 15:01:32;;;;;;;9.35;7.53;;;;;;;;;;10468630;28;20532;-84
2021/10/23 15:06:32;;;;;;;10.07;9.05;;;;;;;;;;10461836;28;20049;-83
2021/10/23 15:11:33;;;;;;;9.80;8.88;;;;;;;;;;10459104;28;20037;-83
2021/10/23 15:16:33;;;;;;;19.52;9.57;;;;;;;;;;10458116;28;20021;-83
2021/10/23 15:21:35;;;;;;;17.30;9.75;;;;;;;;;;10465284;28;20032;-83
2021/10/23 15:26:35;;;;;;;9.43;8.50;;;;;;;;;;10465283;28;20045;-86
2021/10/23 15:31:35;;;;;;;16.20;9.40;;;;;;;;;;10465354;28;20123;-83
2021/10/23 15:36:36;;;;;;;7.97;6.95;;;;;;;;;;10464101;28;20032;-84
2021/10/23 15:41:47;;;;;;;16.38;7.70;;;;;;;;;;10462672;28;20029;-83
2021/10/23 15:46:47;;;;;;;10.95;7.55;;;;;;;;;;10465172;28;20037;-84
2021/10/23 15:51:47;;;;;;;10.93;8.10;;;;;;;;;;10465944;28;20104;-83
2021/10/23 15:56:48;;;;;;;12.03;9.37;;;;;;;;;;10465447;28;20094;-83
2021/10/23 16:01:48;;;;;;;11.68;10.07;;;;;;;;;;10465702;28;20745;-83
2021/10/23 16:06:48;;;;;;;15.38;9.30;;;;;;;;;;10463866;28;20037;-83
2021/10/23 16:11:49;;;;;;;15.73;10.00;;;;;;;;;;10466015;28;20059;-83
2021/10/23 16:16:49;;;;;;;11.00;8.10;;;;;;;;;;10465006;28;20029;-83
2021/10/23 16:21:49;;;;;;;17.58;8.48;;;;;;;;;;10466809;28;20048;-83
2021/10/23 16:26:49;;;;;;;11.40;8.43;;;;;;;;;;10465246;28;20067;-83
2021/10/23 16:31:50;;;;;;;9.25;8.27;;;;;;;;;;10471161;28;20086;-83
2021/10/23 16:36:50;;;;;;;14.65;10.05;;;;;;;;;;10470390;28;20461;-83
2021/10/23 16:41:50;;;;;;;11.68;9.32;;;;;;;;;;10463510;28;20028;-83
2021/10/23 16:46:50;;;;;;;14.35;9.20;;;;;;;;;;10462687;28;20040;-82
2021/10/23 16:51:51;;;;;;;15.68;8.25;;;;;;;;;;10445452;28;20393;-83
2021/10/23 16:56:51;;;;;;;15.80;8.52;;;;;;;;;;10460574;28;20085;-84
2021/10/23 17:01:51;;;;;;;12.90;7.47;;;;;;;;;;10461634;28;20041;-83
2021/10/23 17:06:51;;;;;;;17.48;9.75;;;;;;;;;;10462320;28;20120;-83
2021/10/23 17:11:52;;;;;;;14.63;8.60;;;;;;;;;;10461691;28;20029;-83
2021/10/23 17:16:52;;;;;;;11.25;8.93;;;;;;;;;;10461513;28;20105;-83
2021/10/23 17:21:52;;;;;;;20.93;10.10;;;;;;;;;;10462337;28;20032;-83
2021/10/23 17:26:52;;;;;;;13.43;9.95;;;;;;;;;;10459957;28;20301;-83
2021/10/23 17:31:53;;;;;;;10.57;7.63;;;;;;;;;;10462045;28;20090;-83
2021/10/23 17:36:53;;;;;;;10.32;8.15;;;;;;;;;;10460506;28;20469;-83
2021/10/23 17:41:53;;;;;;;12.63;10.10;;;;;;;;;;10459611;28;20041;-83
2021/10/23 17:46:54;;;;;;;16.92;7.57;;;;;;;;;;10469671;28;20066;-83
2021/10/23 17:51:54;;;;;;;16.65;10.18;;;;;;;;;;10459363;28;20285;-83
2021/10/23 17:56:54;;;;;;;13.13;9.67;;;;;;;;;;10457320;28;20032;-83
2021/10/23 18:01:54;;;;;;;17.38;9.20;;;;;;;;;;10457739;28;20345;-83
2021/10/23 18:06:55;;;;;;;10.93;9.02;;;;;;;;;;10458699;28;20439;-82
2021/10/23 18:11:56;;;;;;;24.85;10.68;;;;;;;;;;10458668;28;20115;-83
2021/10/23 18:22:32;;;;;;;13.98;9.23;;;;;;;;;;10479655;28;20052;-83
2021/10/23 18:27:33;;;;;;;13.82;8.00;;;;;;;;;;10457253;28;20057;-83
2021/10/23 18:32:33;;;;;;;12.07;7.93;;;;;;;;;;10457948;28;20075;-83
2021/10/23 18:37:34;;;;;;;18.17;10.20;;;;;;;;;;10458263;28;20472;-83
2021/10/23 18:42:34;;;;;;;12.95;9.88;;;;;;;;;;10458096;28;20071;-83
2021/10/23 18:47:34;;;;;;;10.57;9.32;;;;;;;;;;10457819;28;20057;-82
2021/10/23 18:52:34;;;;;;;11.13;9.90;;;;;;;;;;10458753;28;20123;-83
2021/10/23 18:57:38;;;;;;;13.50;10.43;;;;;;;;;;10469227;28;20089;-83
2021/10/23 19:02:38;;;;;;;17.15;11.38;;;;;;;;;;10474354;28;20029;-82
2021/10/23 19:07:38;;;;;;;11.57;10.40;;;;;;;;;;10466978;28;20552;-82
2021/10/23 19:12:39;;;;;;;17.30;11.02;;;;;;;;;;10465926;28;20082;-82
2021/10/23 19:17:42;;;;;;;17.73;12.10;;;;;;;;;;10465578;28;20123;-82
2021/10/23 19:22:42;;;;;;;14.82;9.93;;;;;;;;;;10464843;28;20037;-83
2021/10/23 19:27:45;;;;;;;12.70;10.93;;;;;;;;;;10465650;28;20481;-83
2021/10/23 19:32:46;;;;;;;14.38;13.00;;;;;;;;;;10467000;28;20021;-82
2021/10/23 19:37:46;;;;;;;19.05;14.05;;;;;;;;;;10465976;28;20076;-82
2021/10/23 19:42:46;;;;;;;15.45;11.70;;;;;;;;;;10464566;28;20082;-83
2021/10/23 19:47:48;;;;;;;18.13;12.25;;;;;;;;;;10466700;28;20433;-83
2021/10/23 19:52:49;;;;;;;20.90;14.20;;;;;;;;;;10466153;28;20745;-83
2021/10/23 19:57:49;;;;;;;16.20;13.73;;;;;;;;;;10464379;28;20032;-82
2021/10/23 20:02:49;;;;;;;19.33;14.25;;;;;;;;;;10466106;28;20033;-82
2021/10/23 20:07:49;;;;;;;18.63;13.88;;;;;;;;;;10482140;28;20029;-82
2021/10/23 20:12:50;;;;;;;21.92;13.85;;;;;;;;;;10510167;28;20085;-83
2021/10/23 20:17:50;;;;;;;26.63;15.20;;;;;;;;;;10483109;28;20033;-82
2021/10/23 20:22:50;;;;;;;20.60;14.10;;;;;;;;;;10480731;28;20130;-83
2021/10/23 20:27:51;;;;;;;21.65;15.52;;;;;;;;;;10465394;28;20091;-82
2021/10/23 20:32:51;;;;;;;23.05;13.75;;;;;;;;;;10461846;28;20417;-83
2021/10/23 20:37:57;;;;;;;20.27;14.25;;;;;;;;;;10462341;28;20017;-82
2021/10/23 20:42:57;;;;;;;18.30;14.97;;;;;;;;;;10463420;28;20037;-82
2021/10/23 20:47:57;;;;;;;20.00;16.10;;;;;;;;;;10462676;28;20416;-83
2021/10/23 20:52:58;;;;;;;25.50;15.43;;;;;;;;;;10463802;28;20036;-83
2021/10/23 20:57:58;;;;;;;21.55;15.30;;;;;;;;;;10463994;28;20358;-82
2021/10/23 21:02:58;;;;;;;23.08;14.45;;;;;;;;;;10460879;28;20033;-82
2021/10/23 21:07:59;;;;;;;26.08;14.20;;;;;;;;;;10460377;28;20033;-82
2021/10/23 21:12:59;;;;;;;23.58;17.60;;;;;;;;;;10460904;28;20429;-82
2021/10/23 21:17:59;;;;;;;16.13;14.27;;;;;;;;;;10460363;28;20380;-83
2021/10/23 21:22:59;;;;;;;14.75;13.07;;;;;;;;;;10459201;28;20152;-83
2021/10/23 21:28:00;;;;;;;17.10;13.98;;;;;;;;;;10468226;28;20081;-82
2021/10/23 21:33:00;;;;;;;18.52;12.68;;;;;;;;;;10462510;28;20040;-83
2021/10/23 21:38:00;;;;;;;16.90;14.38;;;;;;;;;;10459975;28;20036;-83
2021/10/23 21:43:00;;;;;;;14.43;11.75;;;;;;;;;;10457969;28;20033;-82
2021/10/23 21:48:00;;;;;;;18.30;13.00;;;;;;;;;;10457752;28;20391;-82
2021/10/23 21:53:01;;;;;;;23.58;12.85;;;;;;;;;;10457127;28;20495;-82
2021/10/23 21:58:01;;;;;;;24.42;14.65;;;;;;;;;;10456581;28;20029;-82
2021/10/23 22:03:02;;;;;;;19.48;11.52;;;;;;;;;;10459807;28;20108;-82
2021/10/23 22:08:02;;;;;;;25.35;11.50;;;;;;;;;;10442387;28;20029;-81
2021/10/23 22:13:03;;;;;;;16.43;10.67;;;;;;;;;;10458093;28;20029;-81
2021/10/23 22:18:03;;;;;;;22.48;13.00;;;;;;;;;;10459065;28;20262;-82
2021/10/23 22:23:03;;;;;;;17.65;10.45;;;;;;;;;;10459380;28;20081;-82
2021/10/23 22:28:04;;;;;;;13.00;11.30;;;;;;;;;;10457177;28;20055;-81
2021/10/23 22:33:04;;;;;;;15.20;10.52;;;;;;;;;;10458734;28;20361;-81
2021/10/23 22:38:04;;;;;;;12.50;10.07;;;;;;;;;;10459031;28;20389;-82
2021/10/23 22:43:04;;;;;;;14.20;11.55;;;;;;;;;;10441458;28;20718;-81
2021/10/23 22:48:05;;;;;;;12.25;9.52;;;;;;;;;;10458293;28;20035;-81
2021/10/23 22:53:05;;;;;;;11.77;10.47;;;;;;;;;;10456930;28;20132;-81
2021/10/23 22:58:06;;;;;;;18.55;11.02;;;;;;;;;;10457770;28;20262;-81
2021/10/23 23:03:06;;;;;;;12.35;10.25;;;;;;;;;;10457257;28;20079;-81
2021/10/23 23:08:06;;;;;;;19.75;10.45;;;;;;;;;;10458119;28;20061;-81
2021/10/23 23:13:07;;;;;;;14.32;11.75;;;;;;;;;;10458147;28;20120;-81
2021/10/23 23:18:07;;;;;;;19.77;12.37;;;;;;;;;;10457304;28;20176;-82
2021/10/23 23:23:07;;;;;;;16.92;12.18;;;;;;;;;;10454555;28;20365;-82
2021/10/23 23:28:07;;;;;;;17.13;12.07;;;;;;;;;;10455526;28;20053;-81
2021/10/23 23:33:08;;;;;;;16.17;11.77;;;;;;;;;;10455910;28;20108;-81
2021/10/23 23:38:09;;;;;;;14.37;10.70;;;;;;;;;;10456901;28;20373;-82
2021/10/23 23:43:10;;;;;;;13.52;11.68;;;;;;;;;;10465054;28;20269;-82
2021/10/23 23:48:10;;;;;;;17.58;13.38;;;;;;;;;;10464064;28;20508;-82
2021/10/23 23:53:10;;;;;;;15.48;12.15;;;;;;;;;;10463567;28;20091;-81
2021/10/23 23:58:10;;;;;;;13.07;10.38;;;;;;;;;;10462395;28;20048;-81
